createdAt,value
2018-09-04T00:00:55.183Z,19.63
2018-09-04T00:03:23.671Z,24.27
2018-09-04T00:05:52.169Z,24.17
2018-09-04T00:08:20.597Z,22.00
2018-09-04T00:10:49.112Z,22.30
2018-09-04T00:13:17.598Z,21.97
2018-09-04T00:15:46.146Z,25.90
2018-09-04T00:18:14.688Z,25.87
2018-09-04T00:20:43.204Z,28.70
2018-09-04T00:23:11.789Z,30.83
2018-09-04T00:25:40.294Z,29.43
2018-09-04T00:28:08.726Z,31.93
2018-09-04T00:30:37.299Z,30.03
2018-09-04T00:33:05.833Z,32.03
2018-09-04T00:35:34.243Z,34.63
2018-09-04T00:38:02.714Z,38.63
2018-09-04T00:40:31.299Z,35.30
2018-09-04T00:42:59.796Z,38.13
2018-09-04T00:45:28.254Z,41.10
2018-09-04T00:47:56.767Z,40.33
2018-09-04T00:50:25.255Z,35.73
2018-09-04T00:52:53.948Z,45.03
2018-09-04T00:55:22.446Z,45.27
2018-09-04T00:57:51.155Z,48.57
2018-09-04T01:00:23.763Z,49.90
2018-09-04T01:02:53.126Z,49.97
2018-09-04T01:05:21.654Z,52.13
2018-09-04T01:07:50.252Z,51.30
2018-09-04T01:10:18.772Z,54.97
2018-09-04T01:12:47.232Z,50.17
2018-09-04T01:15:15.704Z,53.30
2018-09-04T01:17:44.938Z,60.47
2018-09-04T01:20:13.418Z,52.83
2018-09-04T01:22:42.047Z,53.70
2018-09-04T01:25:10.514Z,53.30
2018-09-04T01:27:39.066Z,59.47
2018-09-04T01:30:07.839Z,60.10
2018-09-04T01:32:36.264Z,60.17
2018-09-04T01:35:04.845Z,59.57
2018-09-04T01:37:33.399Z,54.50
2018-09-04T01:40:01.968Z,50.33
2018-09-04T01:42:30.451Z,57.60
2018-09-04T01:44:58.998Z,59.17
2018-09-04T01:47:27.632Z,53.23
2018-09-04T01:49:56.165Z,55.63
2018-09-04T01:52:24.600Z,63.97
2018-09-04T01:54:53.077Z,54.13
2018-09-04T01:57:21.483Z,54.37
2018-09-04T01:59:49.996Z,58.87
2018-09-04T02:02:18.753Z,59.37
2018-09-04T02:04:47.161Z,61.00
2018-09-04T02:07:15.752Z,54.40
2018-09-04T02:09:44.261Z,60.07
2018-09-04T02:12:12.713Z,59.97
2018-09-04T02:14:41.092Z,66.10
2018-09-04T02:17:09.493Z,63.10
2018-09-04T02:19:37.906Z,63.83
2018-09-04T02:22:06.636Z,60.67
2018-09-04T02:24:35.107Z,60.13
2018-09-04T02:27:03.666Z,63.63
2018-09-04T02:29:32.120Z,58.93
2018-09-04T02:32:00.659Z,57.93
2018-09-04T02:34:29.097Z,58.67
2018-09-04T02:36:57.578Z,59.23
2018-09-04T02:39:25.997Z,60.07
2018-09-04T02:41:54.468Z,61.93
2018-09-04T02:44:22.966Z,62.60
2018-09-04T02:46:51.437Z,60.03
2018-09-04T02:49:20.229Z,63.17
2018-09-04T02:51:49.737Z,63.00
2018-09-04T02:54:18.363Z,58.07
2018-09-04T02:56:46.801Z,62.80
2018-09-04T02:59:15.281Z,63.53
2018-09-04T03:01:43.734Z,62.83
2018-09-04T03:04:12.159Z,52.60
2018-09-04T03:06:40.787Z,59.43
2018-09-04T03:09:09.417Z,52.80
2018-09-04T03:11:37.929Z,58.40
2018-09-04T03:14:06.380Z,53.67
2018-09-04T03:16:34.873Z,53.70
2018-09-04T03:19:03.372Z,49.67
2018-09-04T03:21:31.935Z,54.53
2018-09-04T03:24:00.326Z,48.70
2018-09-04T03:26:28.793Z,45.23
2018-09-04T03:28:58.661Z,48.13
2018-09-04T03:31:27.075Z,43.20
2018-09-04T03:33:55.547Z,43.67
2018-09-04T03:36:24.441Z,44.03
2018-09-04T03:38:52.943Z,44.13
2018-09-04T03:41:21.438Z,45.37
2018-09-04T03:43:50.120Z,44.27
2018-09-04T03:46:18.611Z,46.97
2018-09-04T03:48:47.043Z,47.90
2018-09-04T03:51:16.055Z,42.87
2018-09-04T03:53:44.533Z,42.43
2018-09-04T03:56:13.079Z,42.80
2018-09-04T03:58:41.538Z,47.20
2018-09-04T04:01:10.339Z,49.60
2018-09-04T04:03:38.764Z,44.40
2018-09-04T04:06:07.197Z,45.47
2018-09-04T04:08:35.731Z,42.07
2018-09-04T04:11:05.339Z,42.07
2018-09-04T04:13:33.815Z,39.27
2018-09-04T04:16:02.211Z,42.27
2018-09-04T04:18:30.753Z,43.87
2018-09-04T04:21:01.055Z,41.00
2018-09-04T04:23:30.345Z,39.60
2018-09-04T04:26:01.214Z,35.63
2018-09-04T04:28:29.657Z,35.10
2018-09-04T04:30:58.173Z,29.20
2018-09-04T04:33:26.857Z,28.50
2018-09-04T04:35:55.347Z,29.03
2018-09-04T04:38:23.919Z,28.57
2018-09-04T04:40:52.489Z,27.50
2018-09-04T04:43:20.920Z,26.13
2018-09-04T04:45:49.406Z,26.50
2018-09-04T04:48:17.985Z,24.83
2018-09-04T04:50:46.543Z,25.00
2018-09-04T04:53:15.169Z,21.57
2018-09-04T04:55:44.305Z,26.30
2018-09-04T04:58:12.819Z,25.17
2018-09-04T05:00:41.284Z,22.93
2018-09-04T05:03:09.787Z,25.73
2018-09-04T05:05:38.612Z,24.50
2018-09-04T05:08:07.153Z,22.00
2018-09-04T05:10:35.651Z,23.13
2018-09-04T05:13:04.437Z,25.70
2018-09-04T05:15:33.050Z,21.70
2018-09-04T05:18:02.130Z,21.33
2018-09-04T05:20:30.800Z,23.93
2018-09-04T05:22:59.384Z,21.80
2018-09-04T05:25:27.876Z,19.63
2018-09-04T05:27:57.193Z,20.50
2018-09-04T05:30:25.668Z,20.70
2018-09-04T05:32:59.390Z,21.13
2018-09-04T05:35:30.915Z,23.20
2018-09-04T05:37:59.416Z,22.00
2018-09-04T05:40:28.121Z,24.10
2018-09-04T05:43:00.109Z,22.50
2018-09-04T05:45:30.025Z,26.73
2018-09-04T05:48:04.887Z,22.43
2018-09-04T05:50:33.436Z,23.50
2018-09-04T05:53:02.147Z,22.87
2018-09-04T05:55:30.689Z,22.33
2018-09-04T05:57:59.262Z,24.13
2018-09-04T06:00:29.939Z,25.67
2018-09-04T06:02:58.525Z,26.73
2018-09-04T06:05:27.003Z,27.43
2018-09-04T06:07:55.439Z,28.77
2018-09-04T06:10:23.877Z,29.10
2018-09-04T06:12:52.360Z,29.13
2018-09-04T06:15:20.791Z,28.17
2018-09-04T06:17:49.285Z,30.60
2018-09-04T06:20:17.876Z,32.07
2018-09-04T06:22:46.335Z,29.93
2018-09-04T06:25:15.172Z,28.07
2018-09-04T06:27:43.686Z,26.80
2018-09-04T06:30:12.648Z,27.07
2018-09-04T06:32:41.196Z,25.30
2018-09-04T06:35:09.612Z,21.33
2018-09-04T06:37:38.144Z,21.27
2018-09-04T06:40:06.747Z,23.70
2018-09-04T06:42:35.270Z,25.43
2018-09-04T06:45:03.809Z,25.90
2018-09-04T06:47:32.284Z,27.87
2018-09-04T06:50:00.867Z,24.37
2018-09-04T06:52:29.381Z,26.13
2018-09-04T06:54:57.826Z,27.73
2018-09-04T06:57:26.273Z,27.30
2018-09-04T06:59:54.824Z,30.53
2018-09-04T07:02:23.424Z,25.57
2018-09-04T07:04:51.971Z,24.13
2018-09-04T07:07:20.496Z,25.07
2018-09-04T07:09:49.056Z,27.07
2018-09-04T07:12:17.548Z,22.33
2018-09-04T07:14:46.074Z,24.97
2018-09-04T07:17:14.473Z,20.60
2018-09-04T07:19:42.978Z,22.00
2018-09-04T07:22:11.396Z,24.87
2018-09-04T07:24:40.022Z,23.60
2018-09-04T07:27:08.632Z,21.50
2018-09-04T07:29:37.108Z,21.97
2018-09-04T07:32:05.622Z,21.00
2018-09-04T07:34:34.072Z,18.70
2018-09-04T07:37:02.540Z,22.23
2018-09-04T07:39:31.044Z,22.87
2018-09-04T07:41:59.610Z,21.87
2018-09-04T07:44:28.209Z,20.30
2018-09-04T07:46:56.798Z,22.30
2018-09-04T07:49:25.355Z,20.13
2018-09-04T07:51:54.461Z,21.63
2018-09-04T07:54:23.202Z,23.00
2018-09-04T07:56:51.729Z,20.80
2018-09-04T07:59:20.282Z,23.67
2018-09-04T08:01:48.753Z,24.63
2018-09-04T08:04:17.310Z,24.20
2018-09-04T08:06:45.864Z,22.77
2018-09-04T08:09:14.334Z,23.43
2018-09-04T08:11:42.793Z,28.63
2018-09-04T08:14:11.337Z,24.97
2018-09-04T08:16:39.828Z,23.20
2018-09-04T08:19:08.293Z,24.67
2018-09-04T08:21:36.918Z,32.23
2018-09-04T08:24:07.710Z,30.57
2018-09-04T08:26:36.355Z,32.20
2018-09-04T08:29:05.066Z,33.37
2018-09-04T08:31:33.797Z,35.47
2018-09-04T08:34:02.435Z,38.10
2018-09-04T08:36:31.101Z,37.33
2018-09-04T08:38:59.657Z,37.47
2018-09-04T08:41:28.170Z,37.80
2018-09-04T08:43:56.851Z,36.90
2018-09-04T08:46:25.423Z,37.80
2018-09-04T08:48:53.919Z,37.83
2018-09-04T08:51:22.393Z,36.87
2018-09-04T08:53:50.884Z,35.43
2018-09-04T08:56:19.352Z,38.10
2018-09-04T08:58:47.947Z,35.13
2018-09-04T09:01:16.424Z,36.53
2018-09-04T09:03:44.971Z,32.87
2018-09-04T09:06:13.481Z,32.63
2018-09-04T09:08:41.933Z,29.83
2018-09-04T09:11:10.544Z,25.67
2018-09-04T09:13:39.276Z,25.23
2018-09-04T09:16:07.935Z,24.77
2018-09-04T09:18:36.428Z,24.70
2018-09-04T09:21:05.136Z,24.97
2018-09-04T09:23:33.629Z,23.23
2018-09-04T09:26:02.158Z,23.40
2018-09-04T09:28:30.702Z,22.87
2018-09-04T09:30:59.117Z,23.23
2018-09-04T09:33:27.736Z,22.13
2018-09-04T09:35:56.284Z,21.20
2018-09-04T09:38:24.728Z,20.03
2018-09-04T09:40:53.403Z,20.77
2018-09-04T09:43:22.056Z,21.10
2018-09-04T09:45:50.688Z,19.33
2018-09-04T09:48:19.206Z,18.43
2018-09-04T09:50:47.885Z,18.93
2018-09-04T09:53:16.583Z,19.70
2018-09-04T09:55:45.292Z,20.40
2018-09-04T09:58:13.940Z,19.40
2018-09-04T10:00:47.720Z,18.80
2018-09-04T10:03:21.741Z,20.43
2018-09-04T10:05:50.626Z,16.83
2018-09-04T10:08:19.557Z,15.97
2018-09-04T10:10:48.470Z,18.43
2018-09-04T10:13:17.247Z,18.00
2018-09-04T10:15:46.248Z,15.83
2018-09-04T10:18:14.841Z,16.97
2018-09-04T10:20:43.426Z,17.53
2018-09-04T10:23:11.989Z,16.43
2018-09-04T10:25:40.556Z,18.03
2018-09-04T10:28:09.678Z,16.63
2018-09-04T10:30:38.509Z,15.10
2018-09-04T10:33:07.153Z,15.70
2018-09-04T10:35:35.981Z,16.30
2018-09-04T10:38:04.526Z,15.47
2018-09-04T10:40:40.443Z,15.20
2018-09-04T10:43:08.992Z,15.23
2018-09-04T10:45:42.981Z,13.90
2018-09-04T10:48:13.645Z,13.80
2018-09-04T10:50:42.332Z,13.50
2018-09-04T10:53:11.004Z,15.40
2018-09-04T10:55:39.748Z,15.93
2018-09-04T10:58:08.313Z,14.27
2018-09-04T11:00:36.877Z,14.90
2018-09-04T11:03:05.688Z,12.50
2018-09-04T11:05:34.270Z,12.57
2018-09-04T11:08:02.820Z,11.40
2018-09-04T11:10:31.439Z,10.47
2018-09-04T11:13:00.088Z,9.87
2018-09-04T11:15:28.718Z,9.87
2018-09-04T11:17:57.609Z,9.67
2018-09-04T11:20:26.749Z,9.73
2018-09-04T11:22:55.325Z,9.40
2018-09-04T11:25:24.309Z,8.53
2018-09-04T11:27:53.013Z,10.07
2018-09-04T11:30:21.664Z,7.83
2018-09-04T11:32:50.171Z,7.77
2018-09-04T11:35:18.866Z,7.30
2018-09-04T11:37:47.394Z,7.10
2018-09-04T11:40:16.162Z,8.07
2018-09-04T11:42:44.676Z,7.83
2018-09-04T11:45:13.310Z,7.17
2018-09-04T11:47:42.504Z,8.13
2018-09-04T11:50:11.675Z,7.53
2018-09-04T11:52:40.322Z,7.97
2018-09-04T11:55:09.660Z,9.53
2018-09-04T11:57:38.347Z,11.23
2018-09-04T12:00:08.409Z,9.67
2018-09-04T12:02:38.940Z,11.90
2018-09-04T12:05:07.573Z,13.20
2018-09-04T12:07:36.255Z,13.37
2018-09-04T12:10:05.176Z,13.33
2018-09-04T12:12:35.056Z,13.23
2018-09-04T12:15:03.567Z,13.57
2018-09-04T12:17:32.112Z,14.43
2018-09-04T12:20:38.421Z,16.17
2018-09-04T12:23:07.845Z,13.83
2018-09-04T12:25:36.590Z,15.00
2018-09-04T12:28:05.231Z,12.37
2018-09-04T12:30:34.418Z,11.97
2018-09-04T12:33:03.055Z,10.07
2018-09-04T12:35:32.553Z,8.97
2018-09-04T12:38:01.497Z,9.83
2018-09-04T12:40:30.132Z,10.80
2018-09-04T12:43:00.834Z,10.87
2018-09-04T12:45:32.293Z,9.23
2018-09-04T12:48:00.806Z,11.07
2018-09-04T12:50:29.269Z,19.87
2018-09-04T12:52:57.793Z,17.67
2018-09-04T12:55:26.455Z,20.30
2018-09-04T12:57:55.083Z,16.17
2018-09-04T13:00:23.680Z,16.30
2018-09-04T13:02:52.250Z,16.70
2018-09-04T13:05:21.110Z,17.63
2018-09-04T13:07:49.794Z,17.07
2018-09-04T13:10:18.357Z,17.70
2018-09-04T13:12:47.013Z,15.23
2018-09-04T13:15:16.307Z,15.60
2018-09-04T13:17:45.860Z,16.10
2018-09-04T13:20:14.354Z,15.10
2018-09-04T13:22:43.089Z,19.17
2018-09-04T13:25:11.574Z,20.53
2018-09-04T13:27:40.080Z,21.17
2018-09-04T13:30:08.696Z,19.70
2018-09-04T13:32:37.366Z,21.10
2018-09-04T13:35:05.984Z,21.00
2018-09-04T13:37:34.580Z,21.43
2018-09-04T13:40:03.782Z,21.97
2018-09-04T13:42:32.993Z,19.50
2018-09-04T13:45:01.637Z,19.33
2018-09-04T13:47:31.411Z,18.33
2018-09-04T13:50:00.056Z,19.63
2018-09-04T13:52:30.143Z,19.90
2018-09-04T13:54:59.048Z,19.40
2018-09-04T13:57:28.426Z,18.60
2018-09-04T13:59:57.426Z,19.80
2018-09-04T14:02:26.352Z,20.37
2018-09-04T14:04:54.954Z,20.90
2018-09-04T14:07:23.713Z,24.07
2018-09-04T14:09:52.376Z,23.50
2018-09-04T14:12:20.940Z,23.43
2018-09-04T14:14:49.456Z,25.40
2018-09-04T14:17:19.597Z,22.73
2018-09-04T14:19:48.092Z,24.10
2018-09-04T14:22:16.897Z,23.83
2018-09-04T14:24:45.571Z,22.80
2018-09-04T14:27:14.570Z,22.43
2018-09-04T14:32:11.760Z,24.50
2018-09-04T14:34:40.239Z,22.63
2018-09-04T14:37:08.846Z,25.57
2018-09-04T14:39:37.465Z,24.50
2018-09-04T14:42:06.413Z,22.63
2018-09-04T14:44:35.040Z,23.93
2018-09-04T14:47:03.696Z,24.70
2018-09-04T14:49:32.730Z,24.87
2018-09-04T14:52:01.860Z,24.60
2018-09-04T14:54:30.629Z,27.57
2018-09-04T14:56:59.511Z,31.27
2018-09-04T14:59:28.129Z,30.40
2018-09-04T15:01:57.473Z,29.83
2018-09-04T15:04:26.240Z,32.03
2018-09-04T15:06:54.799Z,31.97
2018-09-04T15:09:23.360Z,36.30
2018-09-04T15:11:51.992Z,33.90
2018-09-04T15:14:20.639Z,34.33
2018-09-04T15:17:24.539Z,34.10
2018-09-04T15:19:53.179Z,33.97
2018-09-04T15:22:21.693Z,36.13
2018-09-04T15:24:50.286Z,35.93
2018-09-04T15:27:18.790Z,32.83
2018-09-04T15:29:47.274Z,34.27
2018-09-04T15:32:15.782Z,33.50
2018-09-04T15:34:44.357Z,34.13
2018-09-04T15:37:12.985Z,35.20
2018-09-04T15:39:41.918Z,35.17
2018-09-04T15:42:10.666Z,34.80
2018-09-04T15:44:39.354Z,35.37
2018-09-04T15:47:08.040Z,35.10
2018-09-04T15:49:41.878Z,45.63
2018-09-04T15:52:16.714Z,97.67
2018-09-04T15:54:45.724Z,45.03
2018-09-04T15:57:15.144Z,60.83
2018-09-04T15:59:44.003Z,81.20
2018-09-04T16:02:12.680Z,39.63
2018-09-04T16:04:41.962Z,43.50
2018-09-04T16:07:11.158Z,48.50
2018-09-04T16:09:39.862Z,69.17
2018-09-04T16:12:08.398Z,109.97
2018-09-04T16:14:37.042Z,41.67
2018-09-04T16:17:06.157Z,43.37
2018-09-04T16:19:34.847Z,59.13
2018-09-04T16:22:03.517Z,73.50
2018-09-04T16:24:32.200Z,40.63
2018-09-04T16:27:00.770Z,38.00
2018-09-04T16:29:29.415Z,37.53
2018-09-04T16:31:58.055Z,35.50
2018-09-04T16:34:26.884Z,38.40
2018-09-04T16:36:55.604Z,36.30
2018-09-04T16:39:24.483Z,36.07
2018-09-04T16:41:53.159Z,34.37
2018-09-04T16:44:21.927Z,35.73
2018-09-04T16:46:51.080Z,35.90
2018-09-04T16:49:24.213Z,36.07
2018-09-04T16:51:53.331Z,37.33
2018-09-04T16:54:24.312Z,37.87
2018-09-04T16:56:54.358Z,36.83
2018-09-04T16:59:23.422Z,38.10
2018-09-04T17:01:55.358Z,35.67
2018-09-04T17:04:25.684Z,36.90
2018-09-04T17:07:04.216Z,34.77
2018-09-04T17:09:34.705Z,36.77
2018-09-04T17:12:03.699Z,35.73
2018-09-04T17:14:32.375Z,35.97
2018-09-04T17:17:01.345Z,38.13
2018-09-04T17:19:30.002Z,36.37
2018-09-04T17:21:58.715Z,38.83
2018-09-04T17:24:27.831Z,38.10
2018-09-04T17:26:56.547Z,38.47
2018-09-04T17:29:25.203Z,40.30
2018-09-04T17:31:54.457Z,40.50
2018-09-04T17:34:23.196Z,40.63
2018-09-04T17:36:54.150Z,39.93
2018-09-04T17:39:22.999Z,39.37
2018-09-04T17:41:54.298Z,40.17
2018-09-04T17:44:39.935Z,37.43
2018-09-04T17:47:09.070Z,41.83
2018-09-04T17:49:37.754Z,42.63
2018-09-04T17:52:07.547Z,43.33
2018-09-04T17:54:36.992Z,41.27
2018-09-04T17:57:05.946Z,49.20
2018-09-04T17:59:34.638Z,81.00
2018-09-04T18:02:03.491Z,70.50
2018-09-04T18:04:32.636Z,70.17
2018-09-04T18:07:01.727Z,43.33
2018-09-04T18:09:30.931Z,45.17
2018-09-04T18:11:59.683Z,41.27
2018-09-04T18:14:28.877Z,43.90
2018-09-04T18:16:58.032Z,43.37
2018-09-04T18:19:26.746Z,52.67
2018-09-04T18:21:55.796Z,57.77
2018-09-04T18:24:24.848Z,95.53
2018-09-04T18:26:53.546Z,53.37
2018-09-04T18:29:22.421Z,67.27
2018-09-04T18:31:51.160Z,45.20
2018-09-04T18:34:20.383Z,87.43
2018-09-04T18:36:49.303Z,52.07
2018-09-04T18:39:18.708Z,55.00
2018-09-04T18:41:47.479Z,48.00
2018-09-04T18:44:16.089Z,49.00
2018-09-04T18:46:44.919Z,48.33
2018-09-04T18:49:13.669Z,47.80
2018-09-04T18:51:42.874Z,44.93
2018-09-04T18:54:11.543Z,45.20
2018-09-04T18:56:40.607Z,44.67
2018-09-04T18:59:09.260Z,46.27
2018-09-04T19:01:38.398Z,44.17
2018-09-04T19:04:07.293Z,52.67
2018-09-04T19:06:36.336Z,47.87
2018-09-04T19:09:06.065Z,46.77
2018-09-04T19:11:34.816Z,55.67
2018-09-04T19:14:03.951Z,53.50
2018-09-04T19:16:33.454Z,48.17
2018-09-04T19:19:02.203Z,56.30
2018-09-04T19:21:34.047Z,51.10
2018-09-04T19:24:02.770Z,47.83
2018-09-04T19:26:31.443Z,57.57
2018-09-04T19:29:00.435Z,49.77
2018-09-04T19:31:29.376Z,54.10
2018-09-04T19:33:58.048Z,52.27
2018-09-04T19:36:26.719Z,50.90
2018-09-04T19:38:55.308Z,47.77
2018-09-04T19:41:24.272Z,49.53
2018-09-04T19:43:53.233Z,48.60
2018-09-04T19:46:22.378Z,51.57
2018-09-04T19:48:51.692Z,52.53
2018-09-04T19:51:20.961Z,55.97
2018-09-04T19:53:49.599Z,53.23
2018-09-04T19:56:18.982Z,50.83
2018-09-04T19:58:49.004Z,57.07
2018-09-04T20:01:18.130Z,53.13
2018-09-04T20:03:47.059Z,55.20
2018-09-04T20:06:15.864Z,55.10
2018-09-04T20:08:45.663Z,60.20
2018-09-04T20:11:14.168Z,54.83
2018-09-04T20:13:42.718Z,62.23
2018-09-04T20:16:11.548Z,60.47
2018-09-04T20:18:40.069Z,58.60
2018-09-04T20:21:08.597Z,59.33
2018-09-04T20:23:37.282Z,59.50
2018-09-04T20:26:06.487Z,59.73
2018-09-04T20:28:35.751Z,61.80
2018-09-04T20:31:04.684Z,63.40
2018-09-04T20:33:33.281Z,65.90
2018-09-04T20:36:01.977Z,69.83
2018-09-04T20:38:30.726Z,70.23
2018-09-04T20:40:59.401Z,65.93
2018-09-04T20:43:28.038Z,65.90
2018-09-04T20:45:56.674Z,69.83
2018-09-04T20:48:25.169Z,69.10
2018-09-04T20:50:53.662Z,69.33
2018-09-04T20:53:22.164Z,75.43
2018-09-04T20:55:50.738Z,69.97
2018-09-04T20:58:30.568Z,72.50
2018-09-04T21:01:10.358Z,74.10
2018-09-04T21:03:50.228Z,76.13
2018-09-04T21:06:29.959Z,74.70
2018-09-04T21:09:05.165Z,72.27
2018-09-04T21:11:33.803Z,68.30
2018-09-04T21:14:02.510Z,70.03
2018-09-04T21:16:31.047Z,76.53
2018-09-04T21:18:59.736Z,77.93
2018-09-04T21:21:28.573Z,74.40
2018-09-04T21:23:57.161Z,76.77
2018-09-04T21:26:25.653Z,72.60
2018-09-04T21:28:54.442Z,78.90
2018-09-04T21:31:22.931Z,74.93
2018-09-04T21:33:51.465Z,69.23
2018-09-04T21:36:19.957Z,68.90
2018-09-04T21:38:48.537Z,75.50
2018-09-04T21:41:17.093Z,68.90
2018-09-04T21:43:45.614Z,71.60
2018-09-04T21:46:14.156Z,74.47
2018-09-04T21:48:42.654Z,70.57
2018-09-04T21:51:11.261Z,73.20
2018-09-04T21:53:39.994Z,79.00
2018-09-04T21:56:08.707Z,85.57
2018-09-04T21:58:37.175Z,85.10
2018-09-04T22:01:05.749Z,93.63
2018-09-04T22:03:34.221Z,82.37
2018-09-04T22:06:02.695Z,87.47
2018-09-04T22:08:31.148Z,81.80
2018-09-04T22:10:59.598Z,90.87
2018-09-04T22:13:28.079Z,97.33
2018-09-04T22:15:56.549Z,93.20
2018-09-04T22:18:24.959Z,91.37
2018-09-04T22:20:53.489Z,86.63
2018-09-04T22:23:21.982Z,89.77
2018-09-04T22:25:50.593Z,92.23
2018-09-04T22:28:19.228Z,90.20
2018-09-04T22:30:47.833Z,92.17
2018-09-04T22:33:16.509Z,92.43
2018-09-04T22:35:45.045Z,98.77
2018-09-04T22:38:13.610Z,106.90
2018-09-04T22:40:42.084Z,95.83
2018-09-04T22:43:10.529Z,95.57
2018-09-04T22:45:38.956Z,99.00
2018-09-04T22:48:07.431Z,94.30
2018-09-04T22:50:41.396Z,99.07
2018-09-04T22:53:09.913Z,102.47
2018-09-04T22:55:38.393Z,93.20
2018-09-04T22:58:06.960Z,106.30
2018-09-04T23:00:35.339Z,117.67
2018-09-04T23:03:03.900Z,110.33
2018-09-04T23:05:32.356Z,101.13
2018-09-04T23:08:03.993Z,98.87
2018-09-04T23:10:33.949Z,107.07
2018-09-04T23:13:02.367Z,109.33
2018-09-04T23:15:30.818Z,105.00
2018-09-04T23:17:59.278Z,106.73
2018-09-04T23:20:27.881Z,102.43
2018-09-04T23:22:56.546Z,102.13
2018-09-04T23:25:25.152Z,111.20
2018-09-04T23:27:54.231Z,109.93
2018-09-04T23:30:22.810Z,102.00
2018-09-04T23:32:51.271Z,118.37
2018-09-04T23:35:19.693Z,118.63
2018-09-04T23:37:48.255Z,120.83
2018-09-04T23:40:16.788Z,120.87
2018-09-04T23:42:45.218Z,125.63
2018-09-04T23:45:14.393Z,137.60
2018-09-04T23:47:43.606Z,116.70
2018-09-04T23:50:12.047Z,125.07
2018-09-04T23:52:40.760Z,124.13
2018-09-04T23:55:09.200Z,126.10
2018-09-04T23:57:37.802Z,129.23
